CheckWX is a tool to help pilots better visualize weather data.  It is not intended as a substitute for an official pre-flight weather briefing.

20:31:50 UTC

42J METAR
Keystone Airpark
Keystone Heights, Florida, USA
Current

17 mins ago

K42J 182015Z AUTO 27009G15KT 10SM SCT045 BKN075 29/18 A3006 RMK A01 TSNO
Observed
Feb-18 @ 20:15 UTC
Wind
  • 270° at 9 KTS
  • Gusting to 15 KTS
Visibility
10 SM
Flight Rules
VFR
Cloud Levels
  • Scattered at 4,500' AGL
  • Broken at 7,500' AGL
Temperature
29°C / 84°F
Dewpoint
18°C / 64°F
Humidity
51%
Altimeter
30.06" Hg
Pressure
1017.92 hPa
Previous

37 mins ago

K42J 181955Z AUTO 26013KT 10SM FEW042 FEW055 SCT065 29/17 A3006 RMK A01 TSNO
Observed
Feb-18 @ 19:55 UTC
Wind
  • 260° at 13 KTS
Visibility
10 SM
Flight Rules
VFR
Cloud Levels
  • Few at 4,200' AGL
  • Few at 5,500' AGL
  • Scattered at 6,500' AGL
Temperature
29°C / 84°F
Dewpoint
17°C / 63°F
Humidity
48%
Altimeter
30.06" Hg
Pressure
1017.92 hPa
Previous

57 mins ago

K42J 181935Z AUTO 25016KT 10SM SCT042 SCT050 SCT085 30/18 A3006 RMK A01 TSNO
Observed
Feb-18 @ 19:35 UTC
Wind
  • 250° at 16 KTS
Visibility
10 SM
Flight Rules
VFR
Cloud Levels
  • Scattered at 4,200' AGL
  • Scattered at 5,000' AGL
  • Scattered at 8,500' AGL
Temperature
30°C / 86°F
Dewpoint
18°C / 64°F
Humidity
49%
Altimeter
30.06" Hg
Pressure
1017.92 hPa